sensor_id;sensor_type;location;lat;lon;timestamp;pressure;altitude;pressure_sealevel;temperature
11926;BMP180;6022;48.768;18.608;2023-02-28T00:01:30;99415.66;;;-1.25
11926;BMP180;6022;48.768;18.608;2023-02-28T00:03:58;99409.81;;;-1.26
11926;BMP180;6022;48.768;18.608;2023-02-28T00:06:25;99413.16;;;-1.31
11926;BMP180;6022;48.768;18.608;2023-02-28T00:08:53;99406.53;;;-1.34
11926;BMP180;6022;48.768;18.608;2023-02-28T00:11:20;99418.16;;;-1.34
11926;BMP180;6022;48.768;18.608;2023-02-28T00:13:48;99414.81;;;-1.41
11926;BMP180;6022;48.768;18.608;2023-02-28T00:16:20;99418.13;;;-1.39
11926;BMP180;6022;48.768;18.608;2023-02-28T00:18:48;99413.19;;;-1.40
11926;BMP180;6022;48.768;18.608;2023-02-28T00:21:17;99428.94;;;-1.47
11926;BMP180;6022;48.768;18.608;2023-02-28T00:23:45;99423.97;;;-1.47
11926;BMP180;6022;48.768;18.608;2023-02-28T00:26:12;99430.59;;;-1.45
11926;BMP180;6022;48.768;18.608;2023-02-28T00:28:46;99422.28;;;-1.47
11926;BMP180;6022;48.768;18.608;2023-02-28T00:31:34;99422.31;;;-1.50
11926;BMP180;6022;48.768;18.608;2023-02-28T00:34:05;99429.78;;;-1.51
11926;BMP180;6022;48.768;18.608;2023-02-28T00:36:32;99423.13;;;-1.52
11926;BMP180;6022;48.768;18.608;2023-02-28T00:38:59;99418.97;;;-1.57
11926;BMP180;6022;48.768;18.608;2023-02-28T00:41:27;99405.72;;;-1.58
11926;BMP180;6022;48.768;18.608;2023-02-28T00:43:54;99409.88;;;-1.58
11926;BMP180;6022;48.768;18.608;2023-02-28T00:46:22;99417.31;;;-1.61
11926;BMP180;6022;48.768;18.608;2023-02-28T00:48:49;99415.66;;;-1.65
11926;BMP180;6022;48.768;18.608;2023-02-28T00:51:16;99415.66;;;-1.64
11926;BMP180;6022;48.768;18.608;2023-02-28T00:53:43;99425.63;;;-1.68
11926;BMP180;6022;48.768;18.608;2023-02-28T00:56:11;99424.78;;;-1.69
11926;BMP180;6022;48.768;18.608;2023-02-28T00:58:38;99415.69;;;-1.76
11926;BMP180;6022;48.768;18.608;2023-02-28T01:01:05;99419.81;;;-1.73
11926;BMP180;6022;48.768;18.608;2023-02-28T01:03:33;99419.81;;;-1.70
11926;BMP180;6022;48.768;18.608;2023-02-28T01:06:00;99420.63;;;-1.71
11926;BMP180;6022;48.768;18.608;2023-02-28T01:08:29;99418.97;;;-1.71
11926;BMP180;6022;48.768;18.608;2023-02-28T01:10:56;99419.81;;;-1.72
11926;BMP180;6022;48.768;18.608;2023-02-28T01:13:23;99419.00;;;-1.68
11926;BMP180;6022;48.768;18.608;2023-02-28T01:15:55;99428.09;;;-1.62
11926;BMP180;6022;48.768;18.608;2023-02-28T01:18:24;99416.50;;;-1.60
11926;BMP180;6022;48.768;18.608;2023-02-28T01:20:54;99423.94;;;-1.57
11926;BMP180;6022;48.768;18.608;2023-02-28T01:23:23;99423.13;;;-1.65
11926;BMP180;6022;48.768;18.608;2023-02-28T01:25:51;99423.13;;;-1.59
11926;BMP180;6022;48.768;18.608;2023-02-28T01:28:19;99423.13;;;-1.56
11926;BMP180;6022;48.768;18.608;2023-02-28T01:30:50;99426.44;;;-1.54
11926;BMP180;6022;48.768;18.608;2023-02-28T01:33:18;99423.94;;;-1.57
11926;BMP180;6022;48.768;18.608;2023-02-28T01:35:45;99419.78;;;-1.55
11926;BMP180;6022;48.768;18.608;2023-02-28T01:38:13;99429.75;;;-1.55
11926;BMP180;6022;48.768;18.608;2023-02-28T01:40:49;99427.28;;;-1.52
11926;BMP180;6022;48.768;18.608;2023-02-28T01:43:28;99429.78;;;-1.51
11926;BMP180;6022;48.768;18.608;2023-02-28T01:45:57;99427.28;;;-1.52
11926;BMP180;6022;48.768;18.608;2023-02-28T01:48:30;99419.00;;;-1.51
11926;BMP180;6022;48.768;18.608;2023-02-28T01:51:06;99419.81;;;-1.47
11926;BMP180;6022;48.768;18.608;2023-02-28T01:53:45;99426.44;;;-1.40
11926;BMP180;6022;48.768;18.608;2023-02-28T01:56:21;99418.97;;;-1.37
11926;BMP180;6022;48.768;18.608;2023-02-28T01:58:52;99423.94;;;-1.37
11926;BMP180;6022;48.768;18.608;2023-02-28T02:01:22;99414.81;;;-1.41
11926;BMP180;6022;48.768;18.608;2023-02-28T02:03:54;99428.94;;;-1.44
11926;BMP180;6022;48.768;18.608;2023-02-28T02:06:45;99426.44;;;-1.49
11926;BMP180;6022;48.768;18.608;2023-02-28T02:09:14;99419.00;;;-1.51
11926;BMP180;6022;48.768;18.608;2023-02-28T02:11:44;99414.81;;;-1.55
11926;BMP180;6022;48.768;18.608;2023-02-28T02:17:10;99433.09;;;-1.48
11926;BMP180;6022;48.768;18.608;2023-02-28T02:28:47;99433.94;;;-1.51
11926;BMP180;6022;48.768;18.608;2023-02-28T02:34:43;99436.41;;;-1.54
11926;BMP180;6022;48.768;18.608;2023-02-28T02:37:32;99439.72;;;-1.58
11926;BMP180;6022;48.768;18.608;2023-02-28T02:40:20;99441.34;;;-1.57
11926;BMP180;6022;48.768;18.608;2023-02-28T02:43:20;99438.88;;;-1.54
11926;BMP180;6022;48.768;18.608;2023-02-28T02:45:55;99436.38;;;-1.57
11926;BMP180;6022;48.768;18.608;2023-02-28T02:48:29;99441.38;;;-1.54
11926;BMP180;6022;48.768;18.608;2023-02-28T02:51:01;99430.59;;;-1.58
11926;BMP180;6022;48.768;18.608;2023-02-28T02:53:40;99432.25;;;-1.60
11926;BMP180;6022;48.768;18.608;2023-02-28T02:56:09;99430.59;;;-1.55
11926;BMP180;6022;48.768;18.608;2023-02-28T02:58:41;99433.91;;;-1.54
11926;BMP180;6022;48.768;18.608;2023-02-28T03:01:17;99439.72;;;-1.54
11926;BMP180;6022;48.768;18.608;2023-02-28T03:04:04;99435.53;;;-1.53
11926;BMP180;6022;48.768;18.608;2023-02-28T03:06:33;99438.06;;;-1.56
11926;BMP180;6022;48.768;18.608;2023-02-28T03:09:01;99429.75;;;-1.60
11926;BMP180;6022;48.768;18.608;2023-02-28T03:11:29;99435.56;;;-1.59
11926;BMP180;6022;48.768;18.608;2023-02-28T03:14:55;99435.59;;;-1.61
11926;BMP180;6022;48.768;18.608;2023-02-28T03:23:35;99438.03;;;-1.65
11926;BMP180;6022;48.768;18.608;2023-02-28T03:26:19;99437.22;;;-1.69
11926;BMP180;6022;48.768;18.608;2023-02-28T03:29:12;99430.56;;;-1.73
11926;BMP180;6022;48.768;18.608;2023-02-28T03:35:26;99443.03;;;-1.71
11926;BMP180;6022;48.768;18.608;2023-02-28T03:38:22;99449.63;;;-1.76
11926;BMP180;6022;48.768;18.608;2023-02-28T03:41:05;99446.34;;;-1.75
11926;BMP180;6022;48.768;18.608;2023-02-28T03:43:38;99443.84;;;-1.84
11926;BMP180;6022;48.768;18.608;2023-02-28T03:46:12;99454.59;;;-1.82
11926;BMP180;6022;48.768;18.608;2023-02-28T03:48:51;99454.59;;;-1.82
11926;BMP180;6022;48.768;18.608;2023-02-28T03:51:24;99460.41;;;-1.79
11926;BMP180;6022;48.768;18.608;2023-02-28T03:53:58;99451.31;;;-1.75
11926;BMP180;6022;48.768;18.608;2023-02-28T03:56:53;99452.94;;;-1.74
11926;BMP180;6022;48.768;18.608;2023-02-28T03:59:33;99439.72;;;-1.73
11926;BMP180;6022;48.768;18.608;2023-02-28T04:02:02;99452.13;;;-1.75
11926;BMP180;6022;48.768;18.608;2023-02-28T04:04:29;99445.50;;;-1.74
11926;BMP180;6022;48.768;18.608;2023-02-28T04:07:08;99448.81;;;-1.72
11926;BMP180;6022;48.768;18.608;2023-02-28T04:09:38;99452.97;;;-1.71
11926;BMP180;6022;48.768;18.608;2023-02-28T04:12:05;99449.66;;;-1.72
11926;BMP180;6022;48.768;18.608;2023-02-28T04:14:33;99453.78;;;-1.71
11926;BMP180;6022;48.768;18.608;2023-02-28T04:17:00;99449.66;;;-1.70
11926;BMP180;6022;48.768;18.608;2023-02-28T04:19:27;99448.00;;;-1.68
11926;BMP180;6022;48.768;18.608;2023-02-28T04:21:55;99449.66;;;-1.67
11926;BMP180;6022;48.768;18.608;2023-02-28T04:24:26;99457.94;;;-1.67
11926;BMP180;6022;48.768;18.608;2023-02-28T04:26:56;99449.66;;;-1.66
11926;BMP180;6022;48.768;18.608;2023-02-28T04:29:30;99461.28;;;-1.60
11926;BMP180;6022;48.768;18.608;2023-02-28T04:32:00;99451.31;;;-1.63
11926;BMP180;6022;48.768;18.608;2023-02-28T04:34:30;99456.31;;;-1.66
11926;BMP180;6022;48.768;18.608;2023-02-28T04:36:58;99457.97;;;-1.68
11926;BMP180;6022;48.768;18.608;2023-02-28T04:39:43;99463.75;;;-1.66
11926;BMP180;6022;48.768;18.608;2023-02-28T04:42:13;99463.75;;;-1.69
11926;BMP180;6022;48.768;18.608;2023-02-28T04:44:41;99463.75;;;-1.68
11926;BMP180;6022;48.768;18.608;2023-02-28T04:47:08;99457.13;;;-1.70
11926;BMP180;6022;48.768;18.608;2023-02-28T04:49:36;99462.91;;;-1.74
11926;BMP180;6022;48.768;18.608;2023-02-28T04:52:03;99457.91;;;-1.80
11926;BMP180;6022;48.768;18.608;2023-02-28T04:54:31;99467.03;;;-1.82
11926;BMP180;6022;48.768;18.608;2023-02-28T04:56:58;99464.56;;;-1.87
11926;BMP180;6022;48.768;18.608;2023-02-28T04:59:26;99464.53;;;-1.89
11926;BMP180;6022;48.768;18.608;2023-02-28T05:01:55;99461.22;;;-1.96
11926;BMP180;6022;48.768;18.608;2023-02-28T05:04:22;99459.56;;;-1.94
11926;BMP180;6022;48.768;18.608;2023-02-28T05:06:50;99463.69;;;-2.02
11926;BMP180;6022;48.768;18.608;2023-02-28T05:09:17;99463.69;;;-1.99
11926;BMP180;6022;48.768;18.608;2023-02-28T05:11:44;99469.50;;;-1.97
11926;BMP180;6022;48.768;18.608;2023-02-28T05:14:14;99466.19;;;-1.99
11926;BMP180;6022;48.768;18.608;2023-02-28T05:16:41;99462.06;;;-1.98
11926;BMP180;6022;48.768;18.608;2023-02-28T05:19:09;99470.31;;;-1.95
11926;BMP180;6022;48.768;18.608;2023-02-28T05:21:41;99463.69;;;-1.99
11926;BMP180;6022;48.768;18.608;2023-02-28T05:24:14;99472.81;;;-2.04
11926;BMP180;6022;48.768;18.608;2023-02-28T05:26:43;99464.53;;;-2.06
11926;BMP180;6022;48.768;18.608;2023-02-28T05:29:10;99468.66;;;-2.05
11926;BMP180;6022;48.768;18.608;2023-02-28T05:31:38;99467.00;;;-2.06
11926;BMP180;6022;48.768;18.608;2023-02-28T05:34:06;99481.09;;;-1.99
11926;BMP180;6022;48.768;18.608;2023-02-28T05:36:33;99484.41;;;-2.00
11926;BMP180;6022;48.768;18.608;2023-02-28T05:39:05;99478.59;;;-2.00
11926;BMP180;6022;48.768;18.608;2023-02-28T05:41:33;99486.91;;;-1.98
11926;BMP180;6022;48.768;18.608;2023-02-28T05:44:00;99487.75;;;-1.98
11926;BMP180;6022;48.768;18.608;2023-02-28T05:46:28;99486.91;;;-1.97
11926;BMP180;6022;48.768;18.608;2023-02-28T05:48:55;99477.78;;;-1.98
11926;BMP180;6022;48.768;18.608;2023-02-28T05:51:24;99500.16;;;-1.95
11926;BMP180;6022;48.768;18.608;2023-02-28T05:53:52;99504.31;;;-1.89
11926;BMP180;6022;48.768;18.608;2023-02-28T05:56:21;99505.16;;;-1.85
11926;BMP180;6022;48.768;18.608;2023-02-28T05:58:48;99511.00;;;-1.69
11926;BMP180;6022;48.768;18.608;2023-02-28T06:01:37;99506.06;;;-1.51
11926;BMP180;6022;48.768;18.608;2023-02-28T06:04:08;99504.41;;;-1.35
11926;BMP180;6022;48.768;18.608;2023-02-28T06:06:52;99501.91;;;-1.18
11926;BMP180;6022;48.768;18.608;2023-02-28T06:09:19;99511.88;;;-1.01
11926;BMP180;6022;48.768;18.608;2023-02-28T06:11:47;99505.22;;;-0.91
11926;BMP180;6022;48.768;18.608;2023-02-28T06:14:18;99504.38;;;-0.78
11926;BMP180;6022;48.768;18.608;2023-02-28T06:16:47;99502.63;;;-0.53
11926;BMP180;6022;48.768;18.608;2023-02-28T06:19:15;99509.25;;;-0.37
11926;BMP180;6022;48.768;18.608;2023-02-28T06:21:43;99500.88;;;-0.27
11926;BMP180;6022;48.768;18.608;2023-02-28T06:24:11;99493.41;;;-0.27
11926;BMP180;6022;48.768;18.608;2023-02-28T06:26:38;99511.75;;;-0.46
11926;BMP180;6022;48.768;18.608;2023-02-28T06:29:06;99520.06;;;-0.47
11926;BMP180;6022;48.768;18.608;2023-02-28T06:31:34;99520.09;;;-0.60
11926;BMP180;6022;48.768;18.608;2023-02-28T06:34:02;99514.28;;;-0.64
11926;BMP180;6022;48.768;18.608;2023-02-28T06:36:30;99520.13;;;-0.71
11926;BMP180;6022;48.768;18.608;2023-02-28T06:39:00;99522.59;;;-0.74
11926;BMP180;6022;48.768;18.608;2023-02-28T06:41:27;99520.16;;;-0.76
11926;BMP180;6022;48.768;18.608;2023-02-28T06:43:56;99520.13;;;-0.79
11926;BMP180;6022;48.768;18.608;2023-02-28T06:46:24;99519.31;;;-0.73
11926;BMP180;6022;48.768;18.608;2023-02-28T06:48:51;99525.09;;;-0.65
11926;BMP180;6022;48.768;18.608;2023-02-28T06:51:21;99520.91;;;-0.57
11926;BMP180;6022;48.768;18.608;2023-02-28T06:53:50;99519.22;;;-0.49
11926;BMP180;6022;48.768;18.608;2023-02-28T06:56:18;99522.53;;;-0.44
11926;BMP180;6022;48.768;18.608;2023-02-28T06:58:50;99516.69;;;-0.34
11926;BMP180;6022;48.768;18.608;2023-02-28T07:01:20;99515.03;;;-0.26
11926;BMP180;6022;48.768;18.608;2023-02-28T07:03:51;99516.59;;;-0.10
11926;BMP180;6022;48.768;18.608;2023-02-28T07:06:21;99523.25;;;-0.12
11926;BMP180;6022;48.768;18.608;2023-02-28T07:08:51;99519.06;;;-0.04
11926;BMP180;6022;48.768;18.608;2023-02-28T07:11:22;99530.66;;;0.05
11926;BMP180;6022;48.768;18.608;2023-02-28T07:13:50;99529.88;;;0.02
11926;BMP180;6022;48.768;18.608;2023-02-28T07:16:18;99524.81;;;0.14
11926;BMP180;6022;48.768;18.608;2023-02-28T07:18:45;99523.94;;;0.19
11926;BMP180;6022;48.768;18.608;2023-02-28T07:21:13;99527.22;;;0.24
11926;BMP180;6022;48.768;18.608;2023-02-28T07:23:41;99538.75;;;0.43
11926;BMP180;6022;48.768;18.608;2023-02-28T07:26:16;99533.81;;;0.37
11926;BMP180;6022;48.768;18.608;2023-02-28T07:28:47;99537.03;;;0.58
11926;BMP180;6022;48.768;18.608;2023-02-28T07:31:16;99536.22;;;0.56
11926;BMP180;6022;48.768;18.608;2023-02-28T07:33:47;99538.50;;;0.84
11926;BMP180;6022;48.768;18.608;2023-02-28T07:36:29;99545.13;;;0.88
11926;BMP180;6022;48.768;18.608;2023-02-28T07:38:58;99532.56;;;0.96
11926;BMP180;6022;48.768;18.608;2023-02-28T07:41:32;99537.41;;;1.13
11926;BMP180;6022;48.768;18.608;2023-02-28T07:44:01;99533.00;;;1.41
11926;BMP180;6022;48.768;18.608;2023-02-28T07:46:31;99538.91;;;1.31
11926;BMP180;6022;48.768;18.608;2023-02-28T07:49:03;99530.69;;;1.20
11926;BMP180;6022;48.768;18.608;2023-02-28T07:51:31;99528.22;;;1.17
11926;BMP180;6022;48.768;18.608;2023-02-28T07:53:59;99533.88;;;1.34
11926;BMP180;6022;48.768;18.608;2023-02-28T07:56:29;99536.25;;;1.46
11926;BMP180;6022;48.768;18.608;2023-02-28T07:58:57;99529.22;;;1.80
11926;BMP180;6022;48.768;18.608;2023-02-28T08:01:27;99531.50;;;1.98
11926;BMP180;6022;48.768;18.608;2023-02-28T08:03:55;99532.97;;;2.14
11926;BMP180;6022;48.768;18.608;2023-02-28T08:06:29;99533.72;;;2.19
11926;BMP180;6022;48.768;18.608;2023-02-28T08:08:59;99532.13;;;2.15
11926;BMP180;6022;48.768;18.608;2023-02-28T08:11:27;99533.69;;;2.23
11926;BMP180;6022;48.768;18.608;2023-02-28T08:13:55;99535.00;;;2.49
11926;BMP180;6022;48.768;18.608;2023-02-28T08:16:22;99537.63;;;2.40
11926;BMP180;6022;48.768;18.608;2023-02-28T08:18:52;99534.81;;;2.60
11926;BMP180;6022;48.768;18.608;2023-02-28T08:21:21;99535.81;;;2.50
11926;BMP180;6022;48.768;18.608;2023-02-28T08:23:50;99533.63;;;2.26
11926;BMP180;6022;48.768;18.608;2023-02-28T08:26:19;99529.69;;;2.10
11926;BMP180;6022;48.768;18.608;2023-02-28T08:28:50;99529.00;;;1.98
11926;BMP180;6022;48.768;18.608;2023-02-28T08:31:18;99527.34;;;1.97
11926;BMP180;6022;48.768;18.608;2023-02-28T08:33:46;99537.28;;;2.04
11926;BMP180;6022;48.768;18.608;2023-02-28T08:36:19;99538.44;;;2.39
11926;BMP180;6022;48.768;18.608;2023-02-28T08:38:47;99537.69;;;2.36
11926;BMP180;6022;48.768;18.608;2023-02-28T08:41:36;99541.19;;;2.80
11926;BMP180;6022;48.768;18.608;2023-02-28T08:44:07;99536.38;;;3.20
11926;BMP180;6022;48.768;18.608;2023-02-28T08:46:35;99545.03;;;3.48
11926;BMP180;6022;48.768;18.608;2023-02-28T08:49:07;99544.78;;;3.63
11926;BMP180;6022;48.768;18.608;2023-02-28T08:51:46;99543.03;;;3.66
11926;BMP180;6022;48.768;18.608;2023-02-28T08:54:14;99542.84;;;3.32
11926;BMP180;6022;48.768;18.608;2023-02-28T08:56:47;99538.44;;;2.96
11926;BMP180;6022;48.768;18.608;2023-02-28T08:59:15;99540.47;;;3.24
11926;BMP180;6022;48.768;18.608;2023-02-28T09:01:44;99531.72;;;3.46
11926;BMP180;6022;48.768;18.608;2023-02-28T09:04:12;99527.06;;;3.70
11926;BMP180;6022;48.768;18.608;2023-02-28T09:06:46;99528.22;;;3.56
11926;BMP180;6022;48.768;18.608;2023-02-28T09:09:15;99524.72;;;3.63
11926;BMP180;6022;48.768;18.608;2023-02-28T09:11:43;99524.91;;;3.94
11926;BMP180;6022;48.768;18.608;2023-02-28T09:14:11;99533.81;;;4.10
11926;BMP180;6022;48.768;18.608;2023-02-28T09:16:40;99539.16;;;4.34
11926;BMP180;6022;48.768;18.608;2023-02-28T09:19:11;99531.28;;;4.49
11926;BMP180;6022;48.768;18.608;2023-02-28T09:21:40;99526.66;;;4.67
11926;BMP180;6022;48.768;18.608;2023-02-28T09:24:08;99527.88;;;4.51
11926;BMP180;6022;48.768;18.608;2023-02-28T09:26:37;99532.31;;;4.00
11926;BMP180;6022;48.768;18.608;2023-02-28T09:29:09;99525.72;;;3.96
11926;BMP180;6022;48.768;18.608;2023-02-28T09:31:39;99527.91;;;4.13
11926;BMP180;6022;48.768;18.608;2023-02-28T09:34:08;99525.97;;;4.62
11926;BMP180;6022;48.768;18.608;2023-02-28T09:36:36;99519.47;;;4.88
11926;BMP180;6022;48.768;18.608;2023-02-28T09:39:12;99521.78;;;4.96
11926;BMP180;6022;48.768;18.608;2023-02-28T09:41:48;99526.81;;;4.96
11926;BMP180;6022;48.768;18.608;2023-02-28T09:47:30;99520.03;;;5.64
11926;BMP180;6022;48.768;18.608;2023-02-28T09:50:11;99515.44;;;5.79
11926;BMP180;6022;48.768;18.608;2023-02-28T09:52:48;99512.53;;;5.93
11926;BMP180;6022;48.768;18.608;2023-02-28T09:57:57;99524.16;;;6.54
11926;BMP180;6022;48.768;18.608;2023-02-28T10:00:34;99511.28;;;6.63
11926;BMP180;6022;48.768;18.608;2023-02-28T10:05:41;99520.81;;;7.06
11926;BMP180;6022;48.768;18.608;2023-02-28T10:08:30;99513.34;;;7.52
11926;BMP180;6022;48.768;18.608;2023-02-28T10:11:03;99519.81;;;7.10
11926;BMP180;6022;48.768;18.608;2023-02-28T10:16:53;99515.34;;;6.92
11926;BMP180;6022;48.768;18.608;2023-02-28T10:19:38;99511.97;;;6.93
11926;BMP180;6022;48.768;18.608;2023-02-28T10:24:53;99497.81;;;7.86
11926;BMP180;6022;48.768;18.608;2023-02-28T10:27:34;99504.28;;;7.93
11926;BMP180;6022;48.768;18.608;2023-02-28T10:30:02;99496.41;;;8.00
11926;BMP180;6022;48.768;18.608;2023-02-28T10:32:35;99491.41;;;8.44
11926;BMP180;6022;48.768;18.608;2023-02-28T10:35:23;99480.78;;;8.99
11926;BMP180;6022;48.768;18.608;2023-02-28T10:37:56;99483.34;;;9.56
11926;BMP180;6022;48.768;18.608;2023-02-28T10:43:26;99474.41;;;8.69
11926;BMP180;6022;48.768;18.608;2023-02-28T10:48:44;99466.84;;;9.28
11926;BMP180;6022;48.768;18.608;2023-02-28T10:51:19;99465.78;;;9.53
11926;BMP180;6022;48.768;18.608;2023-02-28T10:53:52;99460.19;;;9.83
11926;BMP180;6022;48.768;18.608;2023-02-28T10:56:29;99462.38;;;9.92
11926;BMP180;6022;48.768;18.608;2023-02-28T10:59:02;99460.03;;;10.06
11926;BMP180;6022;48.768;18.608;2023-02-28T11:03:58;99455.94;;;10.74
11926;BMP180;6022;48.768;18.608;2023-02-28T11:06:34;99442.38;;;10.75
11926;BMP180;6022;48.768;18.608;2023-02-28T11:09:13;99444.69;;;10.96
11926;BMP180;6022;48.768;18.608;2023-02-28T11:11:46;99432.56;;;10.51
11926;BMP180;6022;48.768;18.608;2023-02-28T11:14:31;99435.69;;;10.02
11926;BMP180;6022;48.768;18.608;2023-02-28T11:17:33;99437.13;;;10.26
11926;BMP180;6022;48.768;18.608;2023-02-28T11:20:21;99426.84;;;10.81
11926;BMP180;6022;48.768;18.608;2023-02-28T11:22:51;99425.84;;;10.66
11926;BMP180;6022;48.768;18.608;2023-02-28T11:25:26;99426.91;;;10.96
11926;BMP180;6022;48.768;18.608;2023-02-28T11:27:59;99419.88;;;11.34
11926;BMP180;6022;48.768;18.608;2023-02-28T11:30:40;99423.84;;;11.23
11926;BMP180;6022;48.768;18.608;2023-02-28T11:36:07;99411.44;;;10.50
11926;BMP180;6022;48.768;18.608;2023-02-28T11:38:37;99404.38;;;9.85
11926;BMP180;6022;48.768;18.608;2023-02-28T11:47:25;99390.97;;;11.03
11926;BMP180;6022;48.768;18.608;2023-02-28T11:50:12;99382.63;;;11.33
11926;BMP180;6022;48.768;18.608;2023-02-28T11:55:32;99382.81;;;11.47
11926;BMP180;6022;48.768;18.608;2023-02-28T12:03:52;99372.09;;;11.09
11926;BMP180;6022;48.768;18.608;2023-02-28T12:09:46;99371.25;;;11.57
11926;BMP180;6022;48.768;18.608;2023-02-28T12:12:48;99364.34;;;10.95
11926;BMP180;6022;48.768;18.608;2023-02-28T12:21:57;99355.53;;;10.85
11926;BMP180;6022;48.768;18.608;2023-02-28T12:27:44;99344.41;;;11.04
11926;BMP180;6022;48.768;18.608;2023-02-28T12:30:28;99344.50;;;10.69
11926;BMP180;6022;48.768;18.608;2023-02-28T12:33:12;99337.19;;;10.30
11926;BMP180;6022;48.768;18.608;2023-02-28T12:35:56;99337.94;;;10.49
11926;BMP180;6022;48.768;18.608;2023-02-28T12:38:53;99332.06;;;10.48
11926;BMP180;6022;48.768;18.608;2023-02-28T12:41:53;99328.31;;;11.04
11926;BMP180;6022;48.768;18.608;2023-02-28T12:44:42;99318.94;;;10.89
11926;BMP180;6022;48.768;18.608;2023-02-28T12:47:17;99328.84;;;10.78
11926;BMP180;6022;48.768;18.608;2023-02-28T12:50:07;99321.44;;;11.06
11926;BMP180;6022;48.768;18.608;2023-02-28T12:55:45;99319.56;;;10.77
11926;BMP180;6022;48.768;18.608;2023-02-28T12:58:33;99324.50;;;10.80
11926;BMP180;6022;48.768;18.608;2023-02-28T13:04:36;99317.97;;;10.92
11926;BMP180;6022;48.768;18.608;2023-02-28T13:10:20;99307.81;;;11.24
11926;BMP180;6022;48.768;18.608;2023-02-28T13:12:52;99308.69;;;11.23
11926;BMP180;6022;48.768;18.608;2023-02-28T13:15:28;99311.91;;;10.94
11926;BMP180;6022;48.768;18.608;2023-02-28T13:17:59;99305.34;;;11.37
11926;BMP180;6022;48.768;18.608;2023-02-28T13:20:35;99301.63;;;11.44
11926;BMP180;6022;48.768;18.608;2023-02-28T13:23:59;99301.00;;;11.24
11926;BMP180;6022;48.768;18.608;2023-02-28T13:42:49;99282.22;;;10.79
11926;BMP180;6022;48.768;18.608;2023-02-28T13:45:27;99279.59;;;10.97
11926;BMP180;6022;48.768;18.608;2023-02-28T13:48:00;99281.41;;;11.11
11926;BMP180;6022;48.768;18.608;2023-02-28T13:50:39;99276.13;;;10.66
11926;BMP180;6022;48.768;18.608;2023-02-28T13:53:45;99278.94;;;10.77
11926;BMP180;6022;48.768;18.608;2023-02-28T13:56:34;99288.28;;;11.09
11926;BMP180;6022;48.768;18.608;2023-02-28T13:59:46;99278.78;;;10.97
11926;BMP180;6022;48.768;18.608;2023-02-28T14:05:20;99270.97;;;11.00
11926;BMP180;6022;48.768;18.608;2023-02-28T14:08:20;99282.19;;;10.96
11926;BMP180;6022;48.768;18.608;2023-02-28T14:10:51;99279.63;;;10.81
11926;BMP180;6022;48.768;18.608;2023-02-28T14:13:47;99283.75;;;10.66
11926;BMP180;6022;48.768;18.608;2023-02-28T14:16:25;99282.28;;;10.46
11926;BMP180;6022;48.768;18.608;2023-02-28T14:19:10;99277.44;;;10.41
11926;BMP180;6022;48.768;18.608;2023-02-28T14:38:40;99286.19;;;9.66
11926;BMP180;6022;48.768;18.608;2023-02-28T14:41:21;99282.06;;;9.63
11926;BMP180;6022;48.768;18.608;2023-02-28T14:43:59;99277.00;;;9.63
11926;BMP180;6022;48.768;18.608;2023-02-28T14:46:49;99278.00;;;9.42
11926;BMP180;6022;48.768;18.608;2023-02-28T14:49:23;99278.25;;;9.55
11926;BMP180;6022;48.768;18.608;2023-02-28T14:52:29;99275.09;;;9.32
11926;BMP180;6022;48.768;18.608;2023-02-28T14:55:03;99272.56;;;9.32
11926;BMP180;6022;48.768;18.608;2023-02-28T14:57:38;99276.94;;;9.28
11926;BMP180;6022;48.768;18.608;2023-02-28T15:00:27;99270.53;;;9.21
11926;BMP180;6022;48.768;18.608;2023-02-28T15:03:00;99278.94;;;9.22
11926;BMP180;6022;48.768;18.608;2023-02-28T15:05:31;99286.81;;;9.16
11926;BMP180;6022;48.768;18.608;2023-02-28T15:08:17;99279.50;;;9.10
11926;BMP180;6022;48.768;18.608;2023-02-28T15:11:00;99282.47;;;9.00
11926;BMP180;6022;48.768;18.608;2023-02-28T15:13:46;99284.16;;;9.01
11926;BMP180;6022;48.768;18.608;2023-02-28T15:19:30;99281.50;;;8.84
11926;BMP180;6022;48.768;18.608;2023-02-28T15:22:25;99283.56;;;8.76
11926;BMP180;6022;48.768;18.608;2023-02-28T15:24:56;99282.00;;;8.72
11926;BMP180;6022;48.768;18.608;2023-02-28T15:27:32;99280.50;;;8.68
11926;BMP180;6022;48.768;18.608;2023-02-28T15:30:07;99275.06;;;8.57
11926;BMP180;6022;48.768;18.608;2023-02-28T15:32:38;99277.03;;;8.51
11926;BMP180;6022;48.768;18.608;2023-02-28T15:38:00;99274.97;;;8.40
11926;BMP180;6022;48.768;18.608;2023-02-28T15:43:18;99269.47;;;8.31
11926;BMP180;6022;48.768;18.608;2023-02-28T15:45:58;99271.41;;;8.25
11926;BMP180;6022;48.768;18.608;2023-02-28T15:48:33;99283.41;;;8.20
11926;BMP180;6022;48.768;18.608;2023-02-28T15:54:05;99279.00;;;8.25
11926;BMP180;6022;48.768;18.608;2023-02-28T15:56:43;99276.06;;;8.14
11926;BMP180;6022;48.768;18.608;2023-02-28T15:59:25;99273.00;;;8.06
11926;BMP180;6022;48.768;18.608;2023-02-28T16:02:25;99275.03;;;7.98
11926;BMP180;6022;48.768;18.608;2023-02-28T16:07:43;99281.44;;;7.85
11926;BMP180;6022;48.768;18.608;2023-02-28T16:10:12;99278.53;;;7.73
11926;BMP180;6022;48.768;18.608;2023-02-28T16:12:43;99282.97;;;7.68
11926;BMP180;6022;48.768;18.608;2023-02-28T16:15:51;99288.66;;;7.52
11926;BMP180;6022;48.768;18.608;2023-02-28T16:18:21;99283.19;;;7.41
11926;BMP180;6022;48.768;18.608;2023-02-28T16:20:51;99280.13;;;7.33
11926;BMP180;6022;48.768;18.608;2023-02-28T16:23:23;99288.88;;;7.24
11926;BMP180;6022;48.768;18.608;2023-02-28T16:26:06;99285.72;;;7.18
11926;BMP180;6022;48.768;18.608;2023-02-28T16:28:38;99289.25;;;6.91
11926;BMP180;6022;48.768;18.608;2023-02-28T16:31:11;99282.97;;;6.78
11926;BMP180;6022;48.768;18.608;2023-02-28T16:33:47;99289.53;;;6.82
11926;BMP180;6022;48.768;18.608;2023-02-28T16:36:21;99295.66;;;6.76
11926;BMP180;6022;48.768;18.608;2023-02-28T16:38:53;99298.75;;;6.61
11926;BMP180;6022;48.768;18.608;2023-02-28T16:41:26;99287.97;;;6.56
11926;BMP180;6022;48.768;18.608;2023-02-28T16:43:58;99296.56;;;6.50
11926;BMP180;6022;48.768;18.608;2023-02-28T16:46:34;99297.88;;;6.36
11926;BMP180;6022;48.768;18.608;2023-02-28T16:49:02;99305.16;;;6.19
11926;BMP180;6022;48.768;18.608;2023-02-28T16:51:30;99314.19;;;6.01
11926;BMP180;6022;48.768;18.608;2023-02-28T16:54:02;99317.47;;;6.02
11926;BMP180;6022;48.768;18.608;2023-02-28T16:56:34;99326.22;;;5.91
11926;BMP180;6022;48.768;18.608;2023-02-28T16:59:07;99318.31;;;5.76
11926;BMP180;6022;48.768;18.608;2023-02-28T17:01:35;99314.00;;;5.81
11926;BMP180;6022;48.768;18.608;2023-02-28T17:04:03;99318.19;;;5.80
11926;BMP180;6022;48.768;18.608;2023-02-28T17:06:33;99314.09;;;5.76
11926;BMP180;6022;48.768;18.608;2023-02-28T17:09:15;99315.19;;;5.68
11926;BMP180;6022;48.768;18.608;2023-02-28T17:12:10;99319.28;;;5.70